Hinton, WV (25951)

5:24 PM EDT on July 26, 2016 (GMT -0400)
Bluestone Dam - Meador Station | | Change Station

Elev 1394 ft 37.65 °N, 80.88 °W | Updated 26 seconds ago

Mostly Cloudy
Mostly Cloudy
86.5 °F
Feels Like 97 °F
N
0.0
Wind Variable Wind from South
Gusts 0.0 mph

Today
High -- | Low -- °F
--% Chance of Precip.
Yesterday
High -- | Low -- °F
Precip. -- in
Pressure 29.96 in
Visibility 10.0 miles
Clouds Scattered Clouds 3700 ft
Mostly Cloudy 4800 ft
Heat Index 97 °F
Dew Point 76 °F
Humidity 71%
Rainfall 0.00 in
Snow Depth Not available.
6:22 AM 8:36 PM
Waning Gibbous, 51% visible
METAR KBKW 262051Z AUTO VRB03KT 10SM SCT037 BKN048 29/21 A3008 RMK AO2 SLP145 60000 T02890206 56017
Pressure 29.96 in
Visibility 10.0 miles
Clouds Scattered Clouds 3700 ft
Mostly Cloudy 4800 ft
Heat Index 97 °F
Dew Point 76 °F
Humidity 71%
Rainfall 0.00 in
Snow Depth Not available.
6:22 AM 8:36 PM
Waning Gibbous, 51% visible
METAR KBKW 262051Z AUTO VRB03KT 10SM SCT037 BKN048 29/21 A3008 RMK AO2 SLP145 60000 T02890206 56017

10-Day Weather Forecast

Almanac

Astronomy

Jul. 26, 2016 Rise Set
Actual Time
Civil Twilight
Nautical Twilight
Astronomical Twilight
Moon
Length of Visible Light
Length of Day
Tomorrow will be .
, % of the Moon is Illuminated

Today's Extremes

State Highs State Lows

Community

WunderPhotos

Upload Photos

1,927,702 photos uploaded!

WunderBlog® & News

Nearby

Air Quality

  Air Quality AQ Index Pollutant
Not available.

Snow Depth

Station Depth Elevation

Earthquake Activity

City Distance Mag. Time & Date
Minimum magnitude displayed is 2.5.

Coastal Water Temperatures

Place Temperature

Stations

Nearby Weather Stations

Station Location Temp. Windchill Dew Point Humidity Wind Precip. Elev Updated Type
                   

Watches & Warnings

There are currently no watches in effect.